Time;durP1;ratioP1;P1;durP2;ratioP2;P2;SDS_P1;SDS_P2;PMS_P1;PMS_P2;Temp;Humidity;BMP_temperature;BMP_pressure;BME280_temperature;BME280_humidity;BME280_pressure;Samples;Min_cycle;Max_cycle;Signal;HPM_P1;HPM_P2
2022/11/13 00:01:10;;;;;;;6.85;4.32;;;;;;;;;;5056636;28;20033;-79
2022/11/13 00:03:35;;;;;;;;;;;2.90;99.90;;;;;;5062515;28;20029;-80
2022/11/13 00:06:02;;;;;;;6.38;4.05;;;;;;;;;;5072146;28;19991;-79
2022/11/13 00:08:28;;;;;;;9.30;3.78;;;;;;;;;;5073092;28;20033;-79
2022/11/13 00:11:01;;;;;;;6.95;3.63;;;;;;;;;;5063914;28;20039;-79
2022/11/13 00:13:27;;;;;;;16.08;3.95;;;;;;;;;;5063842;28;20039;-80
2022/11/13 00:15:56;;;;;;;6.45;3.85;;;;;;;;;;5065393;28;20085;-80
2022/11/13 00:18:22;;;;;;;6.40;3.70;;;;;;;;;;5065821;28;20074;-79
2022/11/13 00:20:48;;;;;;;6.68;4.00;;;;;;;;;;5059837;28;20650;-79
2022/11/13 00:23:14;;;;;;;5.78;3.33;;;;;;;;;;5066054;28;20120;-79
2022/11/13 00:25:40;;;;;;;4.72;3.55;;;;;;;;;;5048809;28;20096;-79
2022/11/13 00:28:06;;;;;;;6.88;3.97;;;;;;;;;;5064635;28;20072;-79
2022/11/13 00:30:32;;;;;;;6.50;3.65;;;;;;;;;;5064762;28;21945;-79
2022/11/13 00:32:58;;;;;;;9.18;5.57;;;;;;;;;;5058713;28;20044;-80
2022/11/13 00:35:24;;;;;;;11.25;6.53;;;3.10;99.90;;;;;;5067728;28;20029;-80
2022/11/13 00:37:50;;;;;;;11.68;6.05;;;;;;;;;;5066998;28;20132;-80
2022/11/13 00:40:16;;;;;;;11.45;5.78;;;;;;;;;;5070093;28;20024;-80
2022/11/13 00:42:42;;;;;;;9.65;5.15;;;;;;;;;;5058533;28;20036;-79
2022/11/13 00:45:08;;;;;;;10.02;6.47;;;;;;;;;;5065064;28;20017;-80
2022/11/13 00:47:34;;;;;;;8.15;6.38;;;;;;;;;;5068553;28;20037;-79
2022/11/13 00:50:00;;;;;;;10.77;7.05;;;;;;;;;;5076310;28;20031;-79
2022/11/13 00:52:26;;;;;;;7.70;4.63;;;;;;;;;;5084621;28;20044;-79
2022/11/13 00:54:52;;;;;;;8.70;5.22;;;;;;;;;;5082292;28;20055;-79
2022/11/13 00:57:18;;;;;;;7.72;3.92;;;;;;;;;;5079415;28;20047;-79
2022/11/13 00:59:44;;;;;;;12.02;4.68;;;;;;;;;;5068491;28;20029;-80
2022/11/13 01:02:11;;;;;;;5.90;3.75;;;3.80;99.90;;;;;;5048173;28;20028;-80
2022/11/13 01:04:37;;;;;;;8.93;4.07;;;;;;;;;;5063062;28;20478;-78
2022/11/13 01:07:03;;;;;;;6.28;3.53;;;;;;;;;;5065647;28;20509;-78
2022/11/13 01:09:29;;;;;;;5.15;3.15;;;;;;;;;;5068047;28;20029;-78
2022/11/13 01:11:55;;;;;;;4.25;2.78;;;;;;;;;;5067458;28;20036;-78
2022/11/13 01:14:21;;;;;;;3.75;2.97;;;;;;;;;;5055843;28;20083;-79
2022/11/13 01:16:47;;;;;;;5.63;3.50;;;;;;;;;;5072005;28;20028;-79
2022/11/13 01:19:13;;;;;;;7.35;3.15;;;;;;;;;;5062348;28;20040;-78
2022/11/13 01:21:39;;;;;;;4.80;3.53;;;;;;;;;;5056113;28;20067;-78
2022/11/13 01:24:05;;;;;;;6.97;4.13;;;;;;;;;;5055436;28;20074;-79
2022/11/13 01:26:31;;;;;;;7.00;4.40;;;;;;;;;;5061617;28;20088;-79
2022/11/13 01:28:58;;;;;;;4.85;3.47;;;;;;;;;;5052258;28;20115;-79
2022/11/13 01:31:25;;;;;;;7.57;4.30;;;;;;;;;;5069192;28;20017;-79
2022/11/13 01:33:52;;;;;;;6.07;3.70;;;;;;;;;;5071735;28;20087;-79
2022/11/13 01:36:22;;;;;;;5.60;4.05;;;;;;;;;;5072441;28;20569;-79
2022/11/13 01:38:48;;;;;;;7.32;4.15;;;;;;;;;;5062481;28;20037;-79
2022/11/13 01:41:25;;;;;;;5.15;3.63;;;;;;;;;;5070466;28;20039;-78
2022/11/13 01:43:52;;;;;;;5.18;3.53;;;;;;;;;;5069552;28;20083;-79
2022/11/13 01:46:37;;;;;;;4.40;3.22;;;2.90;99.90;;;;;;5075246;28;20032;-79
2022/11/13 01:49:03;;;;;;;6.68;3.83;;;;;;;;;;5068630;28;20139;-79
2022/11/13 01:51:31;;;;;;;4.85;3.20;;;;;;;;;;5069820;28;20078;-79
2022/11/13 01:53:58;;;;;;;7.65;3.20;;;;;;;;;;5070226;28;20558;-78
2022/11/13 01:56:25;;;;;;;5.32;3.40;;;;;;;;;;5070312;28;20032;-78
2022/11/13 01:58:53;;;;;;;4.80;3.75;;;;;;;;;;5063712;28;20064;-80
2022/11/13 02:01:20;;;;;;;8.52;3.35;;;;;;;;;;5068823;28;20036;-80
2022/11/13 02:03:45;;;;;;;6.60;3.65;;;;;;;;;;5075711;28;20025;-80
2022/11/13 02:06:12;;;;;;;5.82;3.40;;;;;;;;;;5070047;28;20024;-80
2022/11/13 02:08:38;;;;;;;4.13;2.55;;;;;;;;;;5073359;28;20047;-80
2022/11/13 02:11:04;;;;;;;6.28;3.75;;;;;;;;;;5066907;28;20064;-79
2022/11/13 02:13:31;;;;;;;5.28;3.03;;;;;;;;;;5070952;28;20032;-80
2022/11/13 02:15:57;;;;;;;5.50;3.55;;;;;;;;;;5070282;28;20028;-79
2022/11/13 02:18:23;;;;;;;4.03;2.63;;;;;;;;;;5073180;28;20032;-80
2022/11/13 02:21:22;;;;;;;5.25;3.67;;;;;;;;;;5063863;28;21218;-80
2022/11/13 02:23:54;;;;;;;6.18;3.28;;;;;;;;;;5009570;28;20036;-81
2022/11/13 02:26:20;;;;;;;6.63;2.95;;;;;;;;;;5065913;28;20067;-80
2022/11/13 02:28:46;;;;;;;5.13;3.45;;;;;;;;;;5068192;28;20095;-79
2022/11/13 02:31:13;;;;;;;4.97;3.30;;;;;;;;;;5069069;28;20081;-80
2022/11/13 02:33:39;;;;;;;4.38;2.95;;;;;;;;;;5063869;28;20032;-80
2022/11/13 02:36:08;;;;;;;4.88;3.40;;;;;;;;;;5069764;28;20032;-80
2022/11/13 02:38:35;;;;;;;5.90;3.70;;;;;;;;;;5065062;28;20041;-80
2022/11/13 02:41:01;;;;;;;6.57;3.42;;;;;;;;;;5065748;28;20036;-80
2022/11/13 02:43:27;;;;;;;6.05;3.13;;;;;;;;;;5060235;28;20059;-80
2022/11/13 02:45:53;;;;;;;5.93;2.95;;;;;;;;;;5068266;28;20089;-80
2022/11/13 02:48:19;;;;;;;5.75;3.60;;;;;;;;;;5073936;28;20444;-80
2022/11/13 02:50:45;;;;;;;4.22;3.22;;;;;;;;;;5070222;28;20133;-79
2022/11/13 02:53:11;;;;;;;4.38;2.75;;;;;;;;;;5068472;28;20040;-79
2022/11/13 02:55:37;;;;;;;4.00;2.80;;;;;;;;;;5067233;28;20028;-79
2022/11/13 02:58:03;;;;;;;7.03;3.72;;;;;;;;;;5062669;28;20056;-80
2022/11/13 03:00:29;;;;;;;4.82;3.00;;;;;;;;;;5065697;28;20032;-79
2022/11/13 03:02:55;;;;;;;6.30;3.42;;;;;;;;;;5069515;28;20044;-80
2022/11/13 03:05:21;;;;;;;3.40;2.10;;;;;;;;;;5068347;28;20052;-80
2022/11/13 03:07:48;;;;;;;4.22;3.17;;;;;;;;;;5065419;28;20043;-80
2022/11/13 03:10:14;;;;;;;5.13;3.50;;;;;;;;;;5067924;28;20031;-80
2022/11/13 03:12:40;;;;;;;10.10;3.50;;;;;;;;;;5064597;28;20596;-80
2022/11/13 03:15:07;;;;;;;5.32;3.08;;;;;;;;;;5065601;28;20033;-80
2022/11/13 03:17:33;;;;;;;4.65;2.78;;;;;;;;;;5069400;28;20021;-80
2022/11/13 03:19:59;;;;;;;4.38;2.72;;;;;;;;;;5061922;28;20068;-80
2022/11/13 03:22:25;;;;;;;4.88;3.20;;;;;;;;;;5065109;28;20062;-80
2022/11/13 03:24:51;;;;;;;5.95;3.58;;;;;;;;;;5059769;28;20025;-79
2022/11/13 03:27:17;;;;;;;5.05;2.65;;;;;;;;;;5062617;28;20074;-79
2022/11/13 03:29:43;;;;;;;6.50;3.03;;;;;;;;;;5060625;28;20091;-80
2022/11/13 03:32:09;;;;;;;5.07;3.28;;;;;;;;;;5065399;28;20078;-80
2022/11/13 03:34:37;;;;;;;3.88;2.67;;;;;;;;;;5066949;28;20052;-80
2022/11/13 03:37:03;;;;;;;4.25;2.85;;;;;;;;;;5062733;28;20052;-79
2022/11/13 03:39:29;;;;;;;3.33;2.47;;;;;;;;;;5063676;28;20071;-80
2022/11/13 03:41:55;;;;;;;4.97;3.15;;;;;;;;;;5062774;28;20024;-80
2022/11/13 03:44:21;;;;;;;4.57;3.33;;;;;;;;;;5067289;28;20025;-79
2022/11/13 03:46:47;;;;;;;5.15;3.35;;;;;;;;;;5060339;28;20031;-80
2022/11/13 03:49:13;;;;;;;4.13;3.22;;;;;;;;;;5064931;28;20090;-79
2022/11/13 03:51:39;;;;;;;3.22;2.70;;;;;;;;;;5065505;28;20283;-80
2022/11/13 03:54:05;;;;;;;5.35;3.05;;;;;;;;;;5063026;28;20119;-80
2022/11/13 03:56:30;;;;;;;3.95;2.35;;;;;;;;;;5066514;28;20029;-80
2022/11/13 03:58:57;;;;;;;4.60;3.05;;;;;;;;;;5057085;28;20036;-79
2022/11/13 04:01:23;;;;;;;4.10;3.25;;;;;;;;;;5065880;28;20036;-80
2022/11/13 04:03:49;;;;;;;3.03;2.40;;;;;;;;;;5068341;28;20036;-79
2022/11/13 04:06:14;;;;;;;7.88;3.88;;;1.70;99.90;;;;;;5063926;28;20108;-80
2022/11/13 04:08:40;;;;;;;4.20;2.67;;;;;;;;;;5065268;28;20946;-79
2022/11/13 04:11:11;;;;;;;5.47;3.38;;;;;;;;;;5055923;28;20036;-79
2022/11/13 04:13:37;;;;;;;6.63;3.35;;;;;;;;;;5064816;28;20048;-79
2022/11/13 04:16:03;;;;;;;6.15;2.97;;;;;;;;;;5064467;28;20031;-79
2022/11/13 04:18:30;;;;;;;5.38;2.53;;;;;;;;;;5064019;28;20422;-80
2022/11/13 04:21:00;;;;;;;5.35;2.83;;;;;;;;;;5057335;28;20032;-80
2022/11/13 04:23:26;;;;;;;2.50;2.05;;;;;;;;;;5059749;28;20960;-79
2022/11/13 04:25:52;;;;;;;4.50;3.22;;;;;;;;;;5062448;28;20016;-80
2022/11/13 04:28:18;;;;;;;6.57;3.28;;;;;;;;;;5061136;28;20372;-79
2022/11/13 04:30:44;;;;;;;3.45;2.67;;;;;;;;;;5061313;28;20029;-81
2022/11/13 04:33:10;;;;;;;5.15;3.22;;;;;;;;;;5068821;28;20024;-78
2022/11/13 04:35:36;;;;;;;5.30;2.50;;;;;;;;;;5068680;28;20040;-80
2022/11/13 04:38:02;;;;;;;5.32;3.17;;;;;;;;;;5068103;28;20060;-79
2022/11/13 04:40:28;;;;;;;5.35;3.08;;;;;;;;;;5059770;28;20102;-80
2022/11/13 04:42:53;;;;;;;6.28;4.13;;;;;;;;;;5070508;28;20390;-80
2022/11/13 04:45:23;;;;;;;3.50;2.03;;;;;;;;;;5065110;28;20031;-79
2022/11/13 04:47:50;;;;;;;9.82;3.30;;;;;;;;;;5064118;28;20024;-79
2022/11/13 04:50:16;;;;;;;4.65;3.20;;;;;;;;;;5061329;28;20037;-79
2022/11/13 04:52:43;;;;;;;5.30;3.33;;;;;;;;;;5059554;28;20033;-79
2022/11/13 04:55:09;;;;;;;8.52;3.50;;;;;;;;;;5060048;28;20040;-80
2022/11/13 04:57:35;;;;;;;4.78;2.92;;;;;;;;;;5065310;28;20043;-80
2022/11/13 05:00:02;;;;;;;4.45;3.33;;;;;;;;;;5061310;28;20401;-80
2022/11/13 05:02:28;;;;;;;4.60;3.17;;;;;;;;;;5051485;28;20055;-80
2022/11/13 05:04:54;;;;;;;6.10;3.22;;;1.60;99.90;;;;;;5065192;28;20720;-79
2022/11/13 05:07:20;;;;;;;7.85;3.17;;;;;;;;;;5066592;28;20035;-80
2022/11/13 05:09:46;;;;;;;3.13;2.10;;;;;;;;;;5061776;28;20031;-80
2022/11/13 05:12:12;;;;;;;3.08;2.05;;;;;;;;;;5064121;28;20119;-79
2022/11/13 05:14:38;;;;;;;4.97;3.72;;;;;;;;;;5068752;28;20055;-79
2022/11/13 05:17:05;;;;;;;8.27;3.05;;;;;;;;;;5063454;28;20044;-79
2022/11/13 05:19:34;;;;;;;5.65;3.65;;;;;;;;;;5070768;28;20062;-79
2022/11/13 05:22:00;;;;;;;4.90;2.88;;;;;;;;;;5068388;28;20036;-79
2022/11/13 05:24:26;;;;;;;3.63;3.05;;;;;;;;;;5062948;28;20029;-79
2022/11/13 05:26:52;;;;;;;6.95;4.15;;;;;;;;;;5066069;28;20028;-80
2022/11/13 05:29:18;;;;;;;4.82;2.75;;;;;;;;;;5057727;28;20031;-80
2022/11/13 05:31:44;;;;;;;7.20;3.28;;;;;;;;;;5062704;28;20071;-79
2022/11/13 05:34:10;;;;;;;7.32;3.47;;;;;;;;;;5067022;28;20797;-80
2022/11/13 05:36:36;;;;;;;6.75;3.85;;;;;;;;;;5068739;28;20029;-79
2022/11/13 05:39:02;;;;;;;10.30;6.20;;;0.70;99.90;;;;;;5069352;28;20048;-80
2022/11/13 05:41:28;;;;;;;12.77;5.45;;;;;;;;;;5067244;28;20033;-80
2022/11/13 05:43:54;;;;;;;4.38;3.72;;;;;;;;;;5068346;28;20054;-80
2022/11/13 05:46:21;;;;;;;4.65;3.10;;;;;;;;;;5067871;28;20904;-79
2022/11/13 05:48:51;;;;;;;4.78;2.78;;;;;;;;;;5074559;28;20100;-79
2022/11/13 05:51:18;;;;;;;6.75;3.95;;;;;;;;;;5069344;28;20496;-80
2022/11/13 05:53:44;;;;;;;5.45;2.75;;;;;;;;;;5063990;28;20025;-80
2022/11/13 05:56:10;;;;;;;8.20;4.22;;;;;;;;;;5054373;28;20044;-80
2022/11/13 05:58:36;;;;;;;12.75;6.85;;;;;;;;;;5069434;28;20413;-80
2022/11/13 06:01:11;;;;;;;8.80;5.28;;;;;;;;;;5068268;28;20025;-80
2022/11/13 06:03:37;;;;;;;8.23;4.18;;;;;;;;;;5063721;28;20029;-79
2022/11/13 06:06:03;;;;;;;8.07;5.40;;;;;;;;;;5058073;28;20108;-79
2022/11/13 06:08:29;;;;;;;7.05;4.03;;;;;;;;;;5066203;28;20060;-80
2022/11/13 06:10:59;;;;;;;8.32;4.85;;;;;;;;;;5063501;28;20025;-80
2022/11/13 06:13:25;;;;;;;5.03;3.50;;;;;;;;;;5078050;28;20036;-79
2022/11/13 06:15:51;;;;;;;5.65;2.97;;;;;;;;;;5074597;28;20028;-79
2022/11/13 06:18:23;;;;;;;7.75;3.00;;;;;;;;;;5079335;28;20025;-79
2022/11/13 06:20:50;;;;;;;5.20;3.55;;;;;;;;;;5079431;28;20358;-80
2022/11/13 06:23:15;;;;;;;4.70;3.00;;;;;;;;;;5061688;28;20029;-81
2022/11/13 06:25:41;;;;;;;3.08;2.75;;;;;;;;;;5062206;28;20020;-78
2022/11/13 06:28:07;;;;;;;5.00;2.60;;;;;;;;;;5067314;28;20029;-78
2022/11/13 06:30:33;;;;;;;13.05;3.05;;;;;;;;;;5052035;28;20017;-81
2022/11/13 06:32:59;;;;;;;7.30;3.78;;;;;;;;;;5065928;28;20190;-81
2022/11/13 06:35:25;;;;;;;6.13;3.15;;;;;;;;;;5066630;28;20033;-79
2022/11/13 06:37:53;;;;;;;5.35;3.45;;;;;;;;;;5065299;28;20121;-79
2022/11/13 06:40:19;;;;;;;3.85;2.85;;;;;;;;;;5057876;28;20037;-78
2022/11/13 06:42:45;;;;;;;5.07;2.22;;;;;;;;;;5063326;28;20112;-79
2022/11/13 06:45:11;;;;;;;4.97;2.58;;;;;;;;;;5068176;28;20029;-78
2022/11/13 06:47:37;;;;;;;3.97;2.67;;;;;;;;;;5061633;28;20116;-79
2022/11/13 06:50:03;;;;;;;4.35;2.28;;;;;;;;;;5064863;28;20044;-81
2022/11/13 06:52:30;;;;;;;2.42;2.17;;;;;;;;;;5061103;28;20031;-78
2022/11/13 06:54:56;;;;;;;3.13;2.63;;;;;;;;;;5061723;28;20029;-81
2022/11/13 06:57:21;;;;;;;3.75;2.65;;;;;;;;;;5061195;28;20028;-81
2022/11/13 06:59:47;;;;;;;4.35;2.75;;;;;;;;;;5059865;28;20482;-81
2022/11/13 07:02:13;;;;;;;4.78;2.80;;;;;;;;;;5063356;28;20078;-81
2022/11/13 07:04:39;;;;;;;4.95;2.67;;;;;;;;;;5060110;28;20028;-81
2022/11/13 07:07:05;;;;;;;5.13;3.17;;;;;;;;;;5058220;28;20032;-81
2022/11/13 07:09:31;;;;;;;4.15;2.40;;;;;;;;;;5047054;28;20055;-81
2022/11/13 07:11:57;;;;;;;7.40;3.17;;;;;;;;;;5041800;28;21003;-79
2022/11/13 07:14:24;;;;;;;7.88;3.92;;;;;;;;;;5055995;28;20793;-79
2022/11/13 07:16:50;;;;;;;10.13;5.40;;;;;;;;;;5060801;28;20075;-78
2022/11/13 07:19:16;;;;;;;18.20;8.57;;;;;;;;;;5058760;28;20043;-79
2022/11/13 07:21:42;;;;;;;50.53;16.42;;;;;;;;;;5048248;28;20385;-79
2022/11/13 07:24:08;;;;;;;40.80;18.55;;;;;;;;;;5050976;28;20044;-79
2022/11/13 07:26:34;;;;;;;38.88;16.50;;;;;;;;;;5046003;28;20024;-79
2022/11/13 07:29:00;;;;;;;22.55;11.43;;;;;;;;;;5049023;28;20406;-80
2022/11/13 07:31:26;;;;;;;16.38;7.25;;;;;;;;;;5049194;28;20025;-79
2022/11/13 07:33:52;;;;;;;15.98;9.00;;;;;;;;;;5055069;28;20044;-80
2022/11/13 07:36:18;;;;;;;12.15;7.05;;;;;;;;;;5049517;28;20025;-81
2022/11/13 07:38:44;;;;;;;17.75;9.75;;;;;;;;;;5044917;28;20574;-79
2022/11/13 07:41:10;;;;;;;11.20;5.93;;;1.40;99.90;;;;;;5050425;28;20066;-80
2022/11/13 07:43:36;;;;;;;12.35;5.93;;;;;;;;;;5055288;28;20440;-80
2022/11/13 07:46:02;;;;;;;7.78;4.50;;;;;;;;;;5056408;28;20115;-79
2022/11/13 07:48:28;;;;;;;8.73;5.95;;;;;;;;;;5040786;28;20074;-78
2022/11/13 07:50:54;;;;;;;18.92;8.85;;;;;;;;;;5057752;28;20027;-78
2022/11/13 07:53:21;;;;;;;17.58;9.02;;;;;;;;;;5048297;28;20032;-79
2022/11/13 07:55:47;;;;;;;16.67;9.30;;;;;;;;;;5039842;28;20021;-79
2022/11/13 07:58:15;;;;;;;20.30;10.05;;;;;;;;;;5053760;28;20524;-78
2022/11/13 08:00:42;;;;;;;24.65;13.32;;;;;;;;;;5038804;28;21302;-79
2022/11/13 08:03:09;;;;;;;16.35;9.98;;;;;;;;;;5061600;28;20028;-79
2022/11/13 08:05:35;;;;;;;23.27;13.77;;;;;;;;;;5062950;28;20033;-81
2022/11/13 08:08:01;;;;;;;16.30;9.90;;;;;;;;;;5054470;28;20033;-80
2022/11/13 08:10:28;;;;;;;16.70;10.73;;;;;;;;;;5058509;28;20036;-80
2022/11/13 08:13:00;;;;;;;20.13;11.13;;;;;;;;;;5060373;28;20027;-81
2022/11/13 08:15:27;;;;;;;15.65;10.25;;;;;;;;;;5064037;28;20562;-80
2022/11/13 08:18:00;;;;;;;16.05;10.10;;;2.60;99.90;;;;;;5068096;28;20044;-80
2022/11/13 08:20:26;;;;;;;18.80;11.68;;;;;;;;;;5062291;28;20737;-79
2022/11/13 08:22:55;;;;;;;25.20;13.45;;;;;;;;;;5055065;28;20028;-80
2022/11/13 08:25:21;;;;;;;22.15;14.38;;;;;;;;;;5064976;28;20031;-80
2022/11/13 08:27:47;;;;;;;24.17;13.70;;;;;;;;;;5062518;28;20021;-80
2022/11/13 08:30:14;;;;;;;29.45;15.85;;;9.40;99.90;;;;;;5062931;28;20501;-78
2022/11/13 08:32:39;;;;;;;18.50;11.13;;;;;;;;;;5059693;28;20036;-79
2022/11/13 08:35:06;;;;;;;7.10;5.55;;;;;;;;;;5059769;28;20021;-80
2022/11/13 08:37:32;;;;;;;5.18;2.47;;;;;;;;;;5042402;28;20036;-78
2022/11/13 08:39:58;;;;;;;4.10;2.40;;;;;;;;;;5068465;28;20427;-80
2022/11/13 08:42:24;;;;;;;6.70;3.65;;;;;;;;;;5068886;28;20044;-80
2022/11/13 08:44:50;;;;;;;3.92;2.22;;;;;;;;;;5074170;28;20066;-78
2022/11/13 08:47:15;;;;;;;4.45;2.55;;;7.20;99.90;;;;;;5064859;28;20025;-79
2022/11/13 08:49:42;;;;;;;3.50;2.33;;;;;;;;;;5071432;28;20021;-79
2022/11/13 08:52:08;;;;;;;3.03;2.05;;;5.80;99.90;;;;;;5066926;28;20029;-79
2022/11/13 08:54:34;;;;;;;3.28;2.17;;;;;;;;;;5067825;28;20508;-80
2022/11/13 08:56:59;;;;;;;4.30;2.28;;;;;;;;;;5074445;28;20055;-79
2022/11/13 08:59:26;;;;;;;3.45;2.58;;;;;;;;;;5067401;28;20051;-79
2022/11/13 09:01:57;;;;;;;3.65;2.17;;;;;;;;;;5069964;28;20477;-79
2022/11/13 09:04:24;;;;;;;5.28;2.72;;;5.40;99.90;;;;;;5070008;28;20028;-79
2022/11/13 09:06:50;;;;;;;4.35;2.17;;;;;;;;;;5068458;28;20033;-80
2022/11/13 09:09:16;;;;;;;11.98;3.13;;;;;;;;;;5073343;28;20428;-79
2022/11/13 09:11:42;;;;;;;3.13;2.13;;;;;;;;;;5071357;28;20060;-79
2022/11/13 09:14:08;;;;;;;6.32;2.83;;;;;;;;;;5072904;28;20020;-79
2022/11/13 09:16:33;;;;;;;4.03;2.47;;;5.90;99.90;;;;;;5071331;28;20044;-80
2022/11/13 09:18:59;;;;;;;3.70;2.83;;;;;;;;;;5078398;28;20063;-79
2022/11/13 09:21:25;;;;;;;5.70;3.20;;;;;;;;;;5067339;28;20033;-79
2022/11/13 09:23:51;;;;;;;5.25;3.13;;;;;;;;;;5073091;28;20115;-81
2022/11/13 09:26:17;;;;;;;6.68;3.67;;;;;;;;;;5072066;28;20045;-78
2022/11/13 09:28:43;;;;;;;6.70;3.45;;;;;;;;;;5076141;28;20054;-79
2022/11/13 09:31:09;;;;;;;7.43;3.28;;;;;;;;;;5069323;28;20039;-79
2022/11/13 09:33:35;;;;;;;4.55;3.28;;;;;;;;;;5073988;28;20037;-79
2022/11/13 09:36:01;;;;;;;5.43;3.03;;;;;;;;;;5074371;28;20028;-80
2022/11/13 09:38:30;;;;;;;4.82;2.50;;;;;;;;;;5071030;28;20647;-80
2022/11/13 09:41:09;;;;;;;4.45;2.63;;;;;;;;;;5069835;28;20044;-79
2022/11/13 09:43:38;;;;;;;4.90;3.00;;;;;;;;;;5072020;28;20023;-80
2022/11/13 09:46:11;;;;;;;5.10;2.47;;;6.80;99.90;;;;;;5060850;28;20035;-79
2022/11/13 09:48:38;;;;;;;4.80;2.40;;;;;;;;;;5071049;28;20094;-79
2022/11/13 09:51:13;;;;;;;3.63;2.30;;;7.70;99.90;;;;;;5069349;28;20043;-79
2022/11/13 09:53:39;;;;;;;6.50;3.00;;;9.00;99.90;;;;;;5071150;28;20085;-79
2022/11/13 09:56:18;;;;;;;10.27;2.90;;;;;;;;;;5071875;28;20063;-79
2022/11/13 09:58:59;;;;;;;5.63;3.28;;;;;;;;;;5083970;28;20124;-79
2022/11/13 10:01:33;;;;;;;4.38;2.45;;;;;;;;;;5072718;28;20036;-79
2022/11/13 10:04:04;;;;;;;4.47;2.63;;;8.10;99.90;;;;;;5075505;28;20092;-78
2022/11/13 10:06:35;;;;;;;2.72;2.00;;;;;;;;;;5068255;28;20483;-80
2022/11/13 10:09:17;;;;;;;7.30;2.65;;;;;;;;;;5072887;28;20036;-78
2022/11/13 10:11:54;;;;;;;4.07;2.55;;;8.20;99.90;;;;;;5074759;28;20038;-80
2022/11/13 10:14:23;;;;;;;3.20;1.85;;;;;;;;;;5079478;28;20025;-79
2022/11/13 10:17:05;;;;;;;4.38;2.20;;;8.50;99.90;;;;;;5071986;28;20036;-78
2022/11/13 10:19:31;;;;;;;3.65;2.47;;;;;;;;;;5063570;28;20040;-80
2022/11/13 10:21:57;;;;;;;3.60;2.03;;;;;;;;;;5065501;28;20133;-79
2022/11/13 10:24:28;;;;;;;6.20;3.05;;;;;;;;;;5057033;28;20035;-79
2022/11/13 10:26:55;;;;;;;3.20;2.28;;;;;;;;;;5065030;28;20047;-82
2022/11/13 10:29:21;;;;;;;6.53;3.08;;;;;;;;;;5061125;28;20239;-81
2022/11/13 10:31:48;;;;;;;3.97;2.47;;;;;;;;;;5052413;28;20551;-84
2022/11/13 10:34:15;;;;;;;4.10;2.00;;;8.60;99.90;;;;;;5058887;28;20116;-82
2022/11/13 10:36:56;;;;;;;5.13;2.60;;;8.70;99.90;;;;;;5063489;28;20032;-82
2022/11/13 10:39:22;;;;;;;4.43;2.72;;;;;;;;;;5060111;28;20033;-81
2022/11/13 10:41:52;;;;;;;4.20;2.15;;;;;;;;;;5059333;28;20393;-83
2022/11/13 10:44:24;;;;;;;4.82;1.95;;;;;;;;;;5052960;28;20029;-81
2022/11/13 10:46:50;;;;;;;4.32;2.78;;;;;;;;;;5055618;28;20051;-82
2022/11/13 10:49:27;;;;;;;3.90;2.45;;;9.90;99.90;;;;;;5052249;28;20056;-81
2022/11/13 10:51:58;;;;;;;2.63;1.98;;;9.00;99.90;;;;;;5057409;28;20119;-80
2022/11/13 10:54:33;;;;;;;3.90;2.28;;;9.50;99.90;;;;;;5051332;28;20675;-81
2022/11/13 10:57:00;;;;;;;5.25;2.10;;;;;;;;;;5051280;28;20028;-81
2022/11/13 10:59:26;;;;;;;5.35;2.75;;;;;;;;;;5065590;28;25331;-81
2022/11/13 11:01:52;;;;;;;3.30;2.05;;;10.20;99.90;;;;;;5054399;28;20028;-81
2022/11/13 11:04:28;;;;;;;4.80;2.53;;;;;;;;;;5058334;28;20485;-81
2022/11/13 11:06:54;;;;;;;5.35;1.80;;;;;;;;;;5064179;28;20032;-82
2022/11/13 11:09:29;;;;;;;4.07;2.00;;;;;;;;;;5056622;28;20028;-82
2022/11/13 11:12:17;;;;;;;2.58;1.88;;;10.90;99.90;;;;;;5058426;28;20032;-82
2022/11/13 11:14:46;;;;;;;4.97;2.08;;;;;;;;;;5056526;28;20024;-82
2022/11/13 11:17:14;;;;;;;7.15;2.85;;;10.50;99.90;;;;;;5054413;28;20029;-81
2022/11/13 11:19:44;;;;;;;3.58;1.50;;;10.80;99.90;;;;;;5057520;28;20048;-80
2022/11/13 11:22:15;;;;;;;5.97;3.03;;;;;;;;;;5056583;28;20064;-82
2022/11/13 11:24:59;;;;;;;3.90;1.85;;;10.80;99.90;;;;;;5058856;28;20039;-81
2022/11/13 11:27:32;;;;;;;3.65;2.13;;;;;;;;;;5061150;28;20031;-83
2022/11/13 11:30:04;;;;;;;2.67;1.83;;;;;;;;;;5061357;28;20025;-81
2022/11/13 11:33:00;;;;;;;3.15;2.22;;;11.00;99.90;;;;;;5062323;28;20496;-81
2022/11/13 11:35:38;;;;;;;3.70;2.20;;;;;;;;;;5055538;28;20032;-81
2022/11/13 11:38:12;;;;;;;4.00;2.10;;;11.10;99.90;;;;;;5061321;28;20102;-81
2022/11/13 11:40:45;;;;;;;3.65;1.95;;;11.50;99.90;;;;;;5064945;28;20242;-79
2022/11/13 11:43:20;;;;;;;3.65;2.08;;;;;;;;;;5080754;28;20022;-82
2022/11/13 11:45:46;;;;;;;6.15;2.20;;;11.80;99.90;;;;;;5079664;28;20029;-80
2022/11/13 11:48:17;;;;;;;6.45;2.47;;;;;;;;;;5077749;28;20029;-80
2022/11/13 11:51:07;;;;;;;3.75;2.30;;;10.80;99.90;;;;;;5064980;28;20032;-83
2022/11/13 11:53:46;;;;;;;2.88;1.95;;;;;;;;;;5066329;28;20550;-82
2022/11/13 11:56:27;;;;;;;3.92;1.75;;;11.60;99.90;;;;;;5055902;28;20112;-83
2022/11/13 11:59:30;;;;;;;2.85;1.60;;;11.80;99.90;;;;;;5063023;28;20044;-82
2022/11/13 12:02:24;;;;;;;3.22;2.00;;;11.70;99.90;;;;;;5061660;28;20035;-81
2022/11/13 12:05:01;;;;;;;3.33;1.58;;;11.70;99.90;;;;;;5060372;28;20040;-81
2022/11/13 12:07:38;;;;;;;3.75;1.90;;;11.50;99.90;;;;;;5062808;28;20032;-81
2022/11/13 12:10:06;;;;;;;3.97;1.70;;;11.80;99.90;;;;;;5051242;28;20029;-81
2022/11/13 12:13:02;;;;;;;2.35;1.70;;;11.70;99.90;;;;;;5047889;28;20025;-81
2022/11/13 12:15:59;;;;;;;3.85;1.95;;;12.10;99.90;;;;;;5052650;28;20036;-81
2022/11/13 12:18:43;;;;;;;4.35;1.80;;;12.70;99.90;;;;;;5054436;28;20040;-81
2022/11/13 12:21:35;;;;;;;2.40;1.73;;;12.70;99.90;;;;;;5056183;28;20616;-81
2022/11/13 12:24:01;;;;;;;6.47;2.08;;;;;;;;;;5057886;28;20059;-78
2022/11/13 12:26:34;;;;;;;2.80;2.08;;;12.90;99.90;;;;;;5059744;28;20052;-79
2022/11/13 12:29:15;;;;;;;3.63;1.85;;;11.70;99.90;;;;;;5066879;28;20017;-79
2022/11/13 12:32:15;;;;;;;3.90;1.88;;;12.70;99.90;;;;;;5061213;28;20047;-79
2022/11/13 12:34:46;;;;;;;4.32;1.88;;;11.60;99.90;;;;;;5021540;28;20047;-80
2022/11/13 12:37:24;;;;;;;2.72;1.67;;;11.70;99.90;;;;;;5061130;28;20486;-81
2022/11/13 12:39:58;;;;;;;7.07;2.45;;;;;;;;;;5055507;28;20040;-80
2022/11/13 12:42:49;;;;;;;2.92;1.50;;;12.60;99.90;;;;;;5063706;28;20098;-82
2022/11/13 12:45:35;;;;;;;3.53;1.88;;;11.90;99.90;;;;;;5060182;28;20021;-81
2022/11/13 12:48:18;;;;;;;3.00;1.75;;;12.00;99.90;;;;;;5071535;28;20064;-81
2022/11/13 12:50:57;;;;;;;3.92;2.38;;;12.60;99.90;;;;;;5068704;28;20028;-81
2022/11/13 12:53:28;;;;;;;4.40;2.80;;;12.70;99.90;;;;;;5071726;28;20079;-82
2022/11/13 12:56:00;;;;;;;7.30;3.85;;;11.90;99.90;;;;;;5065585;28;20043;-81
2022/11/13 12:58:31;;;;;;;6.78;3.00;;;12.60;99.90;;;;;;5071267;28;20120;-82
2022/11/13 13:01:04;;;;;;;4.95;2.40;;;11.40;99.90;;;;;;5060294;28;20028;-82
2022/11/13 13:03:43;;;;;;;4.85;3.03;;;12.60;99.90;;;;;;5068146;28;20036;-83
2022/11/13 13:06:27;;;;;;;6.45;3.08;;;12.00;99.90;;;;;;5072493;28;20036;-85
2022/11/13 13:09:01;;;;;;;7.50;3.83;;;12.00;99.90;;;;;;5070066;28;20058;-84
2022/11/13 13:11:45;;;;;;;5.63;2.33;;;11.90;99.90;;;;;;5067293;28;20039;-82
2022/11/13 13:14:24;;;;;;;4.05;2.35;;;;;;;;;;5062966;28;20037;-81
2022/11/13 13:16:50;;;;;;;3.55;2.55;;;;;;;;;;5060255;28;20032;-81
2022/11/13 13:19:29;;;;;;;4.57;2.22;;;11.70;99.90;;;;;;5041522;28;20055;-81
2022/11/13 13:21:55;;;;;;;3.25;2.17;;;;;;;;;;5055556;28;20043;-80
2022/11/13 13:24:35;;;;;;;4.78;2.35;;;11.80;99.90;;;;;;5055391;28;20025;-81
2022/11/13 13:27:02;;;;;;;5.63;3.55;;;;;;;;;;5053140;28;20029;-81
2022/11/13 13:29:28;;;;;;;4.85;2.55;;;12.50;99.90;;;;;;5066275;28;20024;-81
2022/11/13 13:32:16;;;;;;;5.40;3.15;;;11.70;99.90;;;;;;5067172;28;20067;-81
2022/11/13 13:35:07;;;;;;;9.70;5.50;;;11.90;99.90;;;;;;5059478;28;20036;-79
2022/11/13 13:37:43;;;;;;;4.43;2.72;;;12.00;99.90;;;;;;5064821;28;20107;-82
2022/11/13 13:40:16;;;;;;;7.60;2.75;;;;;;;;;;5056659;28;20036;-80
2022/11/13 13:42:52;;;;;;;;;;;11.50;99.90;;;;;;5059906;28;20033;-83
2022/11/13 13:45:26;;;;;;;10.50;4.20;;;11.80;99.90;;;;;;5062701;28;20326;-80
2022/11/13 13:47:55;;;;;;;4.68;2.92;;;11.30;99.90;;;;;;5061574;28;20453;-82
2022/11/13 13:50:26;;;;;;;4.60;2.63;;;11.70;99.90;;;;;;5064262;28;20436;-80
2022/11/13 13:52:54;;;;;;;5.95;2.88;;;11.90;99.90;;;;;;5062435;28;20121;-81
2022/11/13 13:55:30;;;;;;;7.22;3.53;;;11.30;99.90;;;;;;5057290;28;20478;-81
2022/11/13 13:57:56;;;;;;;6.13;3.33;;;10.90;99.90;;;;;;5059722;28;20137;-83
2022/11/13 14:00:23;;;;;;;8.43;2.88;;;;;;;;;;5058502;28;20068;-80
2022/11/13 14:02:50;;;;;;;6.60;2.60;;;;;;;;;;5061310;28;20025;-84
2022/11/13 14:05:24;;;;;;;9.05;3.15;;;11.60;99.90;;;;;;5058661;28;20087;-80
2022/11/13 14:07:50;;;;;;;4.53;2.90;;;;;;;;;;5064254;28;20032;-80
2022/11/13 14:10:19;;;;;;;5.85;2.70;;;;;;;;;;5053099;28;20497;-82
2022/11/13 14:12:45;;;;;;;5.40;2.15;;;11.50;99.90;;;;;;5062935;28;20028;-82
2022/11/13 14:15:38;;;;;;;6.93;3.33;;;10.80;99.90;;;;;;5057104;28;20482;-83
2022/11/13 14:18:14;;;;;;;8.98;3.35;;;;;;;;;;5057182;28;20582;-81
2022/11/13 14:20:45;;;;;;;7.75;4.35;;;;;;;;;;5059904;28;20537;-82
2022/11/13 14:23:12;;;;;;;4.93;2.83;;;;;;;;;;5063209;28;20024;-83
2022/11/13 14:25:38;;;;;;;9.02;3.53;;;;;;;;;;5060827;28;20028;-83